Time;durP1;ratioP1;P1;durP2;ratioP2;P2;SDS_P1;SDS_P2;PMS_P1;PMS_P2;Temp;Humidity;BMP_temperature;BMP_pressure;BME280_temperature;BME280_humidity;BME280_pressure;Samples;Min_cycle;Max_cycle;Signal;HPM_P1;HPM_P2
2022/01/12 00:01:07;;;;;;;;;20.00;17.67;;;;;;;;5000897;28;11559;-80
2022/01/12 00:03:35;;;;;;;;;23.67;23.67;;;;;;;;5003087;28;11609;-81
2022/01/12 00:06:03;;;;;;;;;17.67;15.00;;;;;;;;5003897;28;11592;-80
2022/01/12 00:08:31;;;;;;;;;43.33;38.67;;;;;;;;5005562;28;11628;-80
2022/01/12 00:10:58;;;;;;;;;32.33;28.00;;;;;;;;5005294;28;8977;-81
2022/01/12 00:13:26;;;;;;;;;20.33;19.67;;;;;;;;5005358;28;11592;-81
2022/01/12 00:15:54;;;;;;;;;21.00;18.33;;;;;;;;5002796;28;11615;-80
2022/01/12 00:18:22;;;;;;;;;27.67;23.00;;;;;;;;5005053;28;11646;-80
2022/01/12 00:20:50;;;;;;;;;39.00;29.67;;;;;;;;5003935;28;11778;-78
2022/01/12 00:23:17;;;;;;;;;31.00;29.00;;;;;;;;5005434;28;8886;-79
2022/01/12 00:25:58;;;;;;;;;20.67;18.33;;;;;;;;5001981;28;8895;-78
2022/01/12 00:33:57;;;;;;;;;26.67;21.67;;;;;;;;5003665;28;8870;-79
2022/01/12 00:36:25;;;;;;;;;16.00;16.00;;;;;;;;5004984;28;8870;-79
2022/01/12 00:38:52;;;;;;;;;24.67;24.67;;;;;;;;5004521;28;11622;-79
2022/01/12 00:41:20;;;;;;;;;32.00;27.67;;;;;;;;5004087;28;12555;-79
2022/01/12 00:43:56;;;;;;;;;27.33;20.67;;;;;;;;5002408;28;8866;-78
2022/01/12 00:46:25;;;;;;;;;17.67;14.00;;;;;;;;5003478;28;8872;-81
2022/01/12 00:48:54;;;;;;;;;23.33;18.67;;;;;;;;5007673;28;11567;-79
2022/01/12 00:51:22;;;;;;;;;15.00;10.33;;;;;;;;5003513;28;11608;-80
2022/01/12 00:53:49;;;;;;;;;17.33;15.33;;;;;;;;5003509;28;11634;-80
2022/01/12 00:56:16;;;;;;;;;32.67;22.00;;;;;;;;5012619;28;11705;-81
2022/01/12 00:58:43;;;;;;;;;16.33;16.33;;;;;;;;5005957;28;11746;-79
2022/01/12 01:01:13;;;;;;;;;22.33;19.00;;;;;;;;5003128;28;11652;-80
2022/01/12 01:03:42;;;;;;;;;16.00;11.33;;;;;;;;5006825;28;11752;-79
2022/01/12 01:06:11;;;;;;;;;17.67;15.00;;;;;;;;5003699;28;11726;-80
2022/01/12 01:08:38;;;;;;;;;21.67;16.00;;;;;;;;5002102;28;11773;-80
2022/01/12 01:11:06;;;;;;;;;25.67;18.00;;;;;;;;5003717;28;11729;-80
2022/01/12 01:13:41;;;;;;;;;29.00;26.00;;;;;;;;5002850;28;11646;-80
2022/01/12 01:16:16;;;;;;;;;39.00;24.00;;;;;;;;5000207;28;11650;-80
2022/01/12 01:27:00;;;;;;;;;21.00;17.00;;;;;;;;5001282;28;11609;-80
2022/01/12 01:29:28;;;;;;;;;21.67;19.33;;;;;;;;5004068;28;11732;-79
2022/01/12 01:31:55;;;;;;;;;25.00;20.00;;;;;;;;5000866;28;11690;-79
2022/01/12 01:34:25;;;;;;;;;37.67;35.00;;;;;;;;5003332;28;11620;-79
2022/01/12 01:36:55;;;;;;;;;19.67;18.33;;;;;;;;5004369;28;8869;-79
2022/01/12 01:39:26;;;;;;;;;18.00;16.67;;;;;;;;5002392;28;11620;-79
2022/01/12 01:41:57;;;;;;;;;21.33;19.00;;;;;;;;5002730;28;11622;-80
2022/01/12 01:55:29;;;;;;;;;29.33;24.67;;;;;;;;5004690;28;11598;-79
2022/01/12 01:57:57;;;;;;;;;12.00;7.00;;;;;;;;5002603;28;8862;-80
2022/01/12 02:00:27;;;;;;;;;30.00;19.67;;;;;;;;4990474;28;8825;-79
2022/01/12 02:02:57;;;;;;;;;23.67;21.00;;;;;;;;5004065;28;8870;-77
2022/01/12 02:05:26;;;;;;;;;17.00;12.00;;;;;;;;5002901;28;8914;-80
2022/01/12 02:07:54;;;;;;;;;24.00;19.00;;;;;;;;5003356;28;11630;-80
2022/01/12 02:10:22;;;;;;;;;20.00;16.00;;;;;;;;5004056;28;11580;-79
2022/01/12 02:12:50;;;;;;;;;23.33;18.67;;;;;;;;4998614;28;11586;-80
2022/01/12 02:15:22;;;;;;;;;21.33;18.00;;;;;;;;4999508;28;11597;-81
2022/01/12 02:40:17;;;;;;;;;15.67;12.00;;;;;;;;4998167;28;11593;-82
2022/01/12 02:42:49;;;;;;;;;17.33;12.00;;;;;;;;5003002;28;8851;-77
2022/01/12 02:50:54;;;;;;;;;26.33;20.00;;;;;;;;5002819;28;8846;-77
2022/01/12 02:53:41;;;;;;;;;24.50;22.00;;;;;;;;5001599;28;8969;-81
2022/01/12 02:56:09;;;;;;;;;18.00;16.33;;;;;;;;5000709;28;8988;-80
2022/01/12 02:58:37;;;;;;;;;13.33;11.67;;;;;;;;5001748;28;8898;-81
2022/01/12 03:04:02;;;;;;;;;20.67;15.67;;;;;;;;5003141;28;11683;-80
2022/01/12 03:06:33;;;;;;;;;19.33;17.00;;;;;;;;5002782;28;8977;-81
2022/01/12 03:09:03;;;;;;;;;28.00;22.00;;;;;;;;5001958;28;11640;-81
2022/01/12 03:11:31;;;;;;;;;25.00;18.00;;;;;;;;5001317;28;8888;-81
2022/01/12 03:13:59;;;;;;;;;33.00;23.00;;;;;;;;5003025;28;8870;-80
2022/01/12 03:16:26;;;;;;;;;16.33;11.00;;;;;;;;5003049;28;8905;-80
2022/01/12 03:18:55;;;;;;;;;18.33;14.00;;;;;;;;5002219;28;12329;-81
2022/01/12 03:21:25;;;;;;;;;20.33;17.33;;;;;;;;5000725;28;11681;-80
2022/01/12 03:23:53;;;;;;;;;26.33;18.00;;;;;;;;5002136;28;8890;-80
2022/01/12 03:26:22;;;;;;;;;20.00;15.33;;;;;;;;5001792;28;8858;-78
2022/01/12 03:28:54;;;;;;;;;22.33;19.33;;;;;;;;5001404;28;8883;-80
2022/01/12 03:31:23;;;;;;;;;20.00;18.67;;;;;;;;5001614;28;8827;-81
2022/01/12 03:33:57;;;;;;;;;22.33;20.33;;;;;;;;5003054;28;11708;-81
2022/01/12 03:36:39;;;;;;;;;19.00;19.00;;;;;;;;4999611;28;8925;-81
2022/01/12 03:39:10;;;;;;;;;22.33;20.67;;;;;;;;5000009;28;8886;-80
2022/01/12 03:41:39;;;;;;;;;18.33;18.00;;;;;;;;5002428;28;8893;-80
2022/01/12 03:44:09;;;;;;;;;21.33;18.67;;;;;;;;5015274;28;8866;-81
2022/01/12 03:46:45;;;;;;;;;21.00;19.00;;;;;;;;5005290;28;8923;-82
2022/01/12 03:49:12;;;;;;;;;19.00;15.67;;;;;;;;4993240;28;11626;-82
2022/01/12 03:51:40;;;;;;;;;23.00;14.33;;;;;;;;5003610;28;9625;-81
2022/01/12 03:54:07;;;;;;;;;22.33;14.33;;;;;;;;5005654;28;11631;-81
2022/01/12 03:56:35;;;;;;;;;17.33;16.00;;;;;;;;5005664;28;11697;-79
2022/01/12 03:59:04;;;;;;;;;10.33;10.33;;;;;;;;5004839;28;11661;-80
2022/01/12 04:01:32;;;;;;;;;21.00;11.00;;;;;;;;5001086;28;11507;-79
2022/01/12 04:04:02;;;;;;;;;16.33;15.00;;;;;;;;5005372;28;11710;-80
2022/01/12 04:09:15;;;;;;;;;11.00;11.00;;;;;;;;5007097;28;11568;-81
2022/01/12 04:11:43;;;;;;;;;12.67;12.67;;;;;;;;5002614;28;11748;-80
2022/01/12 04:14:12;;;;;;;;;15.67;15.67;;;;;;;;5003846;28;12366;-81
2022/01/12 04:16:41;;;;;;;;;18.33;15.67;;;;;;;;4998200;28;11669;-80
2022/01/12 04:19:09;;;;;;;;;16.33;16.33;;;;;;;;5005834;28;12491;-81
2022/01/12 04:21:42;;;;;;;;;24.33;17.33;;;;;;;;5009082;28;11659;-80
2022/01/12 04:24:09;;;;;;;;;28.33;16.33;;;;;;;;5002221;28;11658;-81
2022/01/12 04:26:37;;;;;;;;;13.67;12.00;;;;;;;;5009583;28;12389;-81
2022/01/12 04:29:06;;;;;;;;;22.67;15.00;;;;;;;;5003502;28;11652;-82
2022/01/12 04:31:35;;;;;;;;;22.67;22.67;;;;;;;;5003635;28;11583;-80
2022/01/12 04:34:03;;;;;;;;;14.67;14.67;;;;;;;;5004479;28;11596;-80
2022/01/12 04:36:30;;;;;;;;;15.25;13.00;;;;;;;;5004918;28;11593;-81
2022/01/12 04:38:58;;;;;;;;;15.00;15.00;;;;;;;;5005563;28;11652;-81
2022/01/12 04:41:26;;;;;;;;;23.25;20.50;;;;;;;;5004368;28;11691;-81
2022/01/12 04:43:56;;;;;;;;;14.75;12.00;;;;;;;;5008260;28;11608;-80
2022/01/12 04:46:30;;;;;;;;;30.00;22.50;;;;;;;;5001825;28;11591;-82
2022/01/12 04:49:22;;;;;;;;;20.75;15.00;;;;;;;;5004378;28;11631;-81
2022/01/12 04:51:51;;;;;;;;;18.50;15.75;;;;;;;;5002848;28;11597;-79
2022/01/12 04:54:18;;;;;;;;;26.25;19.00;;;;;;;;5003540;28;11608;-80
2022/01/12 04:56:45;;;;;;;;;21.50;18.00;;;;;;;;5003792;28;11583;-80
2022/01/12 04:59:13;;;;;;;;;18.50;16.00;;;;;;;;5002305;28;11625;-78
2022/01/12 05:01:49;;;;;;;;;12.25;7.75;;;;;;;;5004120;28;11558;-81
2022/01/12 05:07:23;;;;;;;;;18.25;17.50;;;;;;;;4975045;28;11632;-79
2022/01/12 05:12:44;;;;;;;;;18.50;18.00;;;;;;;;5007324;28;11643;-77
2022/01/12 05:12:53;;;;;;;;;16.00;14.50;;;;;;;;5005733;28;11693;-74
2022/01/12 05:15:27;;;;;;;;;25.00;15.75;;;;;;;;5004026;28;11616;-74
2022/01/12 05:17:56;;;;;;;;;14.75;12.00;;;;;;;;5003988;28;11614;-74
2022/01/12 05:20:24;;;;;;;;;19.00;16.67;;;;;;;;5003597;28;12420;-75
2022/01/12 05:22:52;;;;;;;;;22.67;18.67;;;;;;;;5001836;28;11591;-76
2022/01/12 05:25:21;;;;;;;;;18.67;18.00;;;;;;;;5003432;28;11687;-80
2022/01/12 05:27:49;;;;;;;;;18.00;15.00;;;;;;;;5001167;28;11700;-78
2022/01/12 05:30:16;;;;;;;;;22.00;20.00;;;;;;;;5000418;28;11587;-79
2022/01/12 05:32:46;;;;;;;;;24.67;20.33;;;;;;;;5003508;28;11664;-81
2022/01/12 05:35:15;;;;;;;;;16.33;16.33;;;;;;;;5002389;28;11626;-80
2022/01/12 05:37:45;;;;;;;;;18.75;15.00;;;;;;;;5000179;28;11590;-80
2022/01/12 05:40:13;;;;;;;;;14.50;14.50;;;;;;;;5002998;28;11600;-80
2022/01/12 05:42:42;;;;;;;;;18.25;18.25;;;;;;;;5002469;28;11644;-79
2022/01/12 05:45:10;;;;;;;;;20.50;17.75;;;;;;;;4998348;28;11625;-80
2022/01/12 05:49:34;;;;;;;;;18.75;18.75;;;;;;;;5000592;28;12389;-78
2022/01/12 05:50:28;;;;;;;;;15.50;14.00;;;;;;;;5000299;28;11667;-81
2022/01/12 05:52:58;;;;;;;;;20.25;13.75;;;;;;;;5002574;28;11596;-78
2022/01/12 05:55:26;;;;;;;;;21.75;18.75;;;;;;;;5000932;28;13007;-79
2022/01/12 05:57:53;;;;;;;;;22.00;20.00;;;;;;;;5002266;28;11593;-81
2022/01/12 06:00:22;;;;;;;;;32.00;21.00;;;;;;;;4999535;28;11727;-80
2022/01/12 06:02:49;;;;;;;;;16.00;15.00;;;;;;;;5002302;28;11686;-78
2022/01/12 06:05:18;;;;;;;;;17.67;15.67;;;;;;;;5000222;28;11611;-78
2022/01/12 06:07:46;;;;;;;;;18.33;16.67;;;;;;;;5001481;28;12388;-78
2022/01/12 06:10:15;;;;;;;;;19.00;17.67;;;;;;;;5004152;28;11579;-79
2022/01/12 06:12:42;;;;;;;;;18.33;18.33;;;;;;;;5003583;28;11603;-79
2022/01/12 06:15:10;;;;;;;;;27.00;27.00;;;;;;;;5002798;28;12348;-77
2022/01/12 06:17:38;;;;;;;;;20.50;18.00;;;;;;;;5001922;28;11646;-77
2022/01/12 06:20:08;;;;;;;;;23.33;19.67;;;;;;;;5002536;28;11642;-80
2022/01/12 06:22:36;;;;;;;;;28.33;22.33;;;;;;;;4999624;28;11615;-75
2022/01/12 06:25:06;;;;;;;;;18.67;17.00;;;;;;;;5001566;28;11761;-78
2022/01/12 06:27:36;;;;;;;;;21.75;19.00;;;;;;;;5000050;28;11563;-79
2022/01/12 06:31:10;;;;;;;;;20.50;15.75;;;;;;;;5000266;28;11631;-85
2022/01/12 06:32:52;;;;;;;;;18.00;18.00;;;;;;;;4999669;28;11568;-80
2022/01/12 06:35:19;;;;;;;;;13.75;13.00;;;;;;;;4999664;28;11748;-80
2022/01/12 06:37:47;;;;;;;;;8.75;8.75;;;;;;;;5003793;28;11589;-82
2022/01/12 06:40:16;;;;;;;;;17.50;17.50;;;;;;;;5001651;28;11568;-85
2022/01/12 06:42:44;;;;;;;;;14.50;10.25;;;;;;;;5006692;28;11626;-87
2022/01/12 06:45:12;;;;;;;;;19.50;15.25;;;;;;;;5008184;28;11598;-82
2022/01/12 06:47:40;;;;;;;;;20.50;16.00;;;;;;;;5006100;28;11597;-84
2022/01/12 06:50:08;;;;;;;;;16.25;15.25;;;;;;;;5005388;28;11688;-81
2022/01/12 06:52:36;;;;;;;;;18.50;15.75;;;;;;;;5001635;28;12343;-76
2022/01/12 06:55:03;;;;;;;;;22.00;18.67;;;;;;;;4999064;28;11598;-73
2022/01/12 06:57:31;;;;;;;;;19.00;17.00;;;;;;;;4999118;28;11627;-80
2022/01/12 07:00:00;;;;;;;;;16.00;16.00;;;;;;;;5000279;28;11631;-80
2022/01/12 07:02:27;;;;;;;;;18.50;15.00;;;;;;;;5000536;28;11558;-75
2022/01/12 07:04:54;;;;;;;;;19.00;17.25;;;;;;;;5001494;28;11628;-78
2022/01/12 07:07:23;;;;;;;;;16.00;13.25;;;;;;;;5003120;28;11711;-77
2022/01/12 07:09:50;;;;;;;;;25.50;18.75;;;;;;;;4995564;28;11650;-75
2022/01/12 07:12:18;;;;;;;;;20.00;15.00;;;;;;;;4998456;28;11636;-77
2022/01/12 07:14:46;;;;;;;;;19.25;16.50;;;;;;;;4999713;28;11592;-78
2022/01/12 07:17:15;;;;;;;;;15.50;15.50;;;;;;;;5005973;28;11625;-81
2022/01/12 07:19:42;;;;;;;;;18.25;18.25;;;;;;;;5005344;28;11641;-79
2022/01/12 07:22:09;;;;;;;;;19.75;16.25;;;;;;;;5006146;28;11634;-78
2022/01/12 07:24:37;;;;;;;;;26.50;21.75;;;;;;;;5006308;28;11595;-78
2022/01/12 07:27:05;;;;;;;;;19.75;19.75;;;;;;;;5006103;28;11650;-78
2022/01/12 07:29:32;;;;;;;;;23.50;15.25;;;;;;;;5006035;28;12493;-74
2022/01/12 07:31:59;;;;;;;;;20.75;15.50;;;;;;;;5002050;28;11566;-81
2022/01/12 07:34:28;;;;;;;;;16.00;14.50;;;;;;;;5005373;28;11581;-79
2022/01/12 07:36:56;;;;;;;;;21.25;16.75;;;;;;;;5003873;28;12412;-81
2022/01/12 07:39:23;;;;;;;;;17.75;16.75;;;;;;;;5000176;28;11744;-75
2022/01/12 07:41:51;;;;;;;;;13.00;12.75;;;;;;;;5004212;28;11644;-80
2022/01/12 07:44:20;;;;;;;;;19.50;18.25;;;;;;;;5003145;28;11751;-78
2022/01/12 07:46:48;;;;;;;;;28.33;23.33;;;;;;;;5003503;28;11673;-77
2022/01/12 07:49:16;;;;;;;;;22.67;22.00;;;;;;;;5004730;28;11759;-74
2022/01/12 07:51:45;;;;;;;;;24.33;22.00;;;;;;;;5003924;28;11628;-78
2022/01/12 07:54:12;;;;;;;;;20.67;15.00;;;;;;;;4995289;28;12287;-79
2022/01/12 07:56:39;;;;;;;;;26.00;23.33;;;;;;;;5006200;28;12442;-79
2022/01/12 07:59:07;;;;;;;;;19.00;15.00;;;;;;;;5004719;28;11643;-79
2022/01/12 08:01:35;;;;;;;;;27.67;23.00;;;;;;;;5005024;28;11578;-79
2022/01/12 08:04:02;;;;;;;;;32.00;26.33;;;;;;;;5006511;28;11715;-79
2022/01/12 08:06:29;;;;;;;;;30.00;26.25;;;;;;;;5000933;28;11637;-78
2022/01/12 08:08:59;;;;;;;;;25.75;21.75;;;;;;;;5006781;28;11791;-79
2022/01/12 08:11:28;;;;;;;;;23.25;21.25;;;;;;;;5003480;28;11637;-78
2022/01/12 08:13:55;;;;;;;;;28.67;21.00;;;;;;;;5006140;28;11660;-79
2022/01/12 08:16:23;;;;;;;;;18.50;16.00;;;;;;;;5005202;28;11634;-78
2022/01/12 08:18:50;;;;;;;;;26.25;20.50;;;;;;;;5004867;28;11682;-76
2022/01/12 08:21:17;;;;;;;;;27.25;21.00;;;;;;;;5005715;28;11726;-79
2022/01/12 08:23:44;;;;;;;;;28.75;23.00;;;;;;;;5004706;28;12849;-77
2022/01/12 08:26:13;;;;;;;;;21.75;18.25;;;;;;;;5017575;28;11603;-79
2022/01/12 08:28:40;;;;;;;;;27.75;22.00;;;;;;;;5004844;28;11786;-78
2022/01/12 08:31:08;;;;;;;;;32.00;25.75;;;;;;;;5004315;28;11572;-79
2022/01/12 08:33:35;;;;;;;;;20.50;19.00;;;;;;;;5004955;28;12398;-79
2022/01/12 08:36:03;;;;;;;;;28.50;23.75;;;;;;;;5005494;28;11647;-79
2022/01/12 08:38:30;;;;;;;;;26.25;22.25;;;;;;;;5005365;28;11601;-79
2022/01/12 08:40:58;;;;;;;;;26.50;20.25;;;;;;;;5004490;28;11663;-77
2022/01/12 08:43:26;;;;;;;;;23.25;16.25;;;;;;;;5006357;28;11619;-78
2022/01/12 08:45:54;;;;;;;;;33.00;30.00;;;;;;;;5004025;28;11632;-78
2022/01/12 08:48:22;;;;;;;;;25.75;18.25;;;;;;;;5005819;28;11655;-78
2022/01/12 08:50:49;;;;;;;;;28.75;23.00;;;;;;;;5003747;28;11605;-77
2022/01/12 08:53:16;;;;;;;;;18.25;18.25;;;;;;;;5005902;28;11626;-77
2022/01/12 08:55:44;;;;;;;;;31.50;26.50;;;;;;;;5004780;28;11627;-78
2022/01/12 08:58:11;;;;;;;;;23.00;23.00;;;;;;;;5005054;28;11661;-77
2022/01/12 09:00:40;;;;;;;;;29.50;24.50;;;;;;;;5004645;28;12256;-76
2022/01/12 09:03:08;;;;;;;;;20.00;17.00;;;;;;;;5003995;28;11759;-77
2022/01/12 09:05:36;;;;;;;;;27.50;16.00;;;;;;;;5004001;28;11689;-77
2022/01/12 09:08:03;;;;;;;;;36.25;23.50;;;;;;;;5002709;28;11711;-77
2022/01/12 09:10:31;;;;;;;;;16.50;14.25;;;;;;;;5004361;28;11634;-78
2022/01/12 09:12:58;;;;;;;;;25.00;18.25;;;;;;;;5000258;28;11572;-77
2022/01/12 09:15:26;;;;;;;;;24.25;22.75;;;;;;;;5003344;28;12579;-78
2022/01/12 09:17:57;;;;;;;;;26.75;22.25;;;;;;;;5005308;28;12417;-76
2022/01/12 09:20:25;;;;;;;;;14.50;11.25;;;;;;;;5003546;28;11632;-77
2022/01/12 09:22:53;;;;;;;;;25.25;17.50;;;;;;;;5004894;28;11624;-78
2022/01/12 09:25:20;;;;;;;;;24.00;20.75;;;;;;;;5003567;28;11679;-78
2022/01/12 09:27:48;;;;;;;;;26.50;22.75;;;;;;;;5004667;28;11647;-79
2022/01/12 09:30:18;;;;;;;;;30.00;27.25;;;;;;;;5003420;28;11625;-78
2022/01/12 09:32:46;;;;;;;;;23.00;21.75;;;;;;;;5002523;28;11637;-78
2022/01/12 09:35:15;;;;;;;;;24.25;20.25;;;;;;;;5004909;28;11611;-78
2022/01/12 09:37:43;;;;;;;;;30.00;24.75;;;;;;;;5002327;28;11646;-78
2022/01/12 09:40:12;;;;;;;;;22.75;20.00;;;;;;;;5003803;28;12129;-79
2022/01/12 09:42:39;;;;;;;;;23.25;17.50;;;;;;;;5003092;28;11605;-79
2022/01/12 09:45:13;;;;;;;;;25.50;22.75;;;;;;;;4983231;28;12400;-78
2022/01/12 09:47:42;;;;;;;;;12.00;11.25;;;;;;;;5004048;28;11691;-78
2022/01/12 09:50:10;;;;;;;;;14.75;14.75;;;;;;;;5004215;28;11599;-77
2022/01/12 09:52:39;;;;;;;;;24.00;22.50;;;;;;;;5001504;28;11653;-78
2022/01/12 09:55:07;;;;;;;;;20.75;19.50;;;;;;;;5002912;28;11646;-80
2022/01/12 09:57:34;;;;;;;;;27.00;19.50;;;;;;;;4991177;28;11592;-78
2022/01/12 10:00:01;;;;;;;;;27.00;27.00;;;;;;;;5003018;28;11640;-79
2022/01/12 10:02:29;;;;;;;;;30.75;25.75;;;;;;;;5003676;28;11626;-79
2022/01/12 10:05:03;;;;;;;;;22.75;22.25;;;;;;;;5003398;28;11757;-78
2022/01/12 10:07:31;;;;;;;;;25.00;22.25;;;;;;;;5004458;28;11616;-79
2022/01/12 10:10:04;;;;;;;;;27.00;25.25;;;;;;;;5006302;28;11615;-78
2022/01/12 10:12:32;;;;;;;;;23.50;19.00;;;;;;;;5007806;28;11764;-78
2022/01/12 10:15:01;;;;;;;;;26.50;19.75;;;;;;;;5006602;28;11650;-79
2022/01/12 10:17:34;;;;;;;;;22.00;19.50;;;;;;;;4999211;28;11644;-77
2022/01/12 10:20:09;;;;;;;;;25.75;24.50;;;;;;;;5003101;28;11715;-79
2022/01/12 10:22:37;;;;;;;;;28.75;24.25;;;;;;;;5003407;28;11606;-79
2022/01/12 10:25:17;;;;;;;;;25.75;25.75;;;;;;;;5003230;28;11676;-78
2022/01/12 10:27:44;;;;;;;;;19.75;19.75;;;;;;;;5003546;28;11711;-80
2022/01/12 10:30:20;;;;;;;;;20.75;14.50;;;;;;;;5002042;28;11625;-79
2022/01/12 10:32:47;;;;;;;;;22.75;21.00;;;;;;;;5001336;28;11574;-79
2022/01/12 10:35:15;;;;;;;;;22.25;22.25;;;;;;;;5002654;28;11629;-78
2022/01/12 10:37:42;;;;;;;;;22.00;19.00;;;;;;;;5002223;28;11619;-79
2022/01/12 10:40:10;;;;;;;;;36.50;26.00;;;;;;;;5004081;28;11735;-77
2022/01/12 10:42:40;;;;;;;;;32.00;26.75;;;;;;;;5002580;28;11661;-79
2022/01/12 10:45:07;;;;;;;;;27.00;25.25;;;;;;;;5003579;28;12425;-79
2022/01/12 10:47:35;;;;;;;;;29.25;26.25;;;;;;;;5002004;28;11621;-79
2022/01/12 10:50:04;;;;;;;;;27.50;25.75;;;;;;;;5002995;28;11650;-79
2022/01/12 10:52:34;;;;;;;;;26.00;22.25;;;;;;;;4999209;28;12970;-80
2022/01/12 10:55:06;;;;;;;;;28.50;25.50;;;;;;;;5003641;28;11659;-80
2022/01/12 10:57:35;;;;;;;;;33.25;31.25;;;;;;;;5005697;28;11619;-80
2022/01/12 11:00:19;;;;;;;;;40.75;37.50;;;;;;;;5008470;28;12439;-78
2022/01/12 11:02:48;;;;;;;;;37.00;30.00;;;;;;;;5003073;28;11627;-79
2022/01/12 11:05:16;;;;;;;;;39.25;35.75;;;;;;;;5002253;28;12443;-78
2022/01/12 11:07:44;;;;;;;;;36.25;32.50;;;;;;;;5003537;28;11665;-79
2022/01/12 11:10:12;;;;;;;;;35.50;28.50;;;;;;;;5002441;28;11779;-80
2022/01/12 11:12:41;;;;;;;;;29.75;25.75;;;;;;;;5002742;28;11633;-79
2022/01/12 11:15:09;;;;;;;;;38.25;29.50;;;;;;;;4986179;28;11597;-79
2022/01/12 11:17:39;;;;;;;;;38.75;34.25;;;;;;;;5001836;28;11635;-80
2022/01/12 11:20:13;;;;;;;;;47.25;37.25;;;;;;;;5003329;28;11764;-79
2022/01/12 11:22:53;;;;;;;;;43.75;40.25;;;;;;;;5003139;28;11664;-79
2022/01/12 11:25:21;;;;;;;;;39.75;39.00;;;;;;;;5002114;28;11713;-79
2022/01/12 11:27:51;;;;;;;;;47.25;41.25;;;;;;;;5002605;28;11640;-78
2022/01/12 11:30:22;;;;;;;;;44.25;40.00;;;;;;;;5001725;28;11665;-79
2022/01/12 11:33:02;;;;;;;;;47.50;39.00;;;;;;;;5002166;28;11634;-79
2022/01/12 11:35:32;;;;;;;;;40.25;35.75;;;;;;;;5000654;28;11666;-78
2022/01/12 11:38:00;;;;;;;;;37.25;34.25;;;;;;;;5002909;28;11624;-77
2022/01/12 11:40:38;;;;;;;;;41.50;36.00;;;;;;;;5002046;28;11631;-78
2022/01/12 11:43:17;;;;;;;;;33.00;26.00;;;;;;;;5008617;28;11647;-79
2022/01/12 11:45:44;;;;;;;;;36.75;35.50;;;;;;;;5006512;28;11667;-79
2022/01/12 11:48:13;;;;;;;;;30.50;30.00;;;;;;;;5003588;28;11631;-80
2022/01/12 11:50:41;;;;;;;;;26.00;26.00;;;;;;;;5005936;28;11650;-77
2022/01/12 11:53:08;;;;;;;;;37.50;29.00;;;;;;;;4995816;28;11657;-76
2022/01/12 11:55:40;;;;;;;;;30.75;28.25;;;;;;;;4999883;28;11679;-80
2022/01/12 11:58:17;;;;;;;;;28.75;28.75;;;;;;;;4998963;28;11653;-78
2022/01/12 12:00:47;;;;;;;;;31.50;31.50;;;;;;;;5000104;28;11576;-74
2022/01/12 12:03:19;;;;;;;;;39.50;35.25;;;;;;;;5001043;28;12410;-78
2022/01/12 12:05:48;;;;;;;;;37.00;32.00;;;;;;;;5005970;28;11626;-81
2022/01/12 12:08:25;;;;;;;;;39.75;34.75;;;;;;;;5004211;28;11721;-81
2022/01/12 12:10:55;;;;;;;;;46.25;38.75;;;;;;;;5003175;28;11634;-79
2022/01/12 12:13:25;;;;;;;;;32.25;29.00;;;;;;;;5006049;28;11651;-76
2022/01/12 12:15:53;;;;;;;;;34.00;33.25;;;;;;;;5005073;28;11807;-76
2022/01/12 12:18:24;;;;;;;;;42.75;34.00;;;;;;;;5006581;28;11610;-82
2022/01/12 12:20:53;;;;;;;;;36.25;34.00;;;;;;;;5005516;28;11682;-80
2022/01/12 12:23:28;;;;;;;;;40.50;34.75;;;;;;;;5005958;28;11618;-81
2022/01/12 12:25:58;;;;;;;;;33.50;31.00;;;;;;;;5004923;28;11660;-81
2022/01/12 12:28:25;;;;;;;;;27.50;24.75;;;;;;;;5004611;28;11682;-83
2022/01/12 12:30:53;;;;;;;;;39.25;33.00;;;;;;;;5012905;28;11558;-80
2022/01/12 12:33:23;;;;;;;;;32.75;31.75;;;;;;;;5002720;28;12388;-78
2022/01/12 12:35:56;;;;;;;;;39.25;33.25;;;;;;;;5004539;28;11773;-80
2022/01/12 12:38:24;;;;;;;;;28.75;28.50;;;;;;;;5004819;28;11721;-86
2022/01/12 12:40:55;;;;;;;;;29.25;28.75;;;;;;;;5000133;28;11604;-83
2022/01/12 12:43:25;;;;;;;;;33.50;27.25;;;;;;;;5013151;28;11625;-79
2022/01/12 12:45:57;;;;;;;;;28.75;24.75;;;;;;;;5009226;28;11659;-85
2022/01/12 12:48:28;;;;;;;;;34.25;29.50;;;;;;;;5004715;28;11612;-78
2022/01/12 12:51:00;;;;;;;;;29.00;26.25;;;;;;;;5003971;28;11615;-82
2022/01/12 12:53:28;;;;;;;;;37.00;29.50;;;;;;;;5006200;28;11759;-79
2022/01/12 12:55:56;;;;;;;;;46.25;33.00;;;;;;;;5003231;28;11630;-79
2022/01/12 12:58:26;;;;;;;;;35.00;25.25;;;;;;;;5014599;28;11798;-80
2022/01/12 13:00:54;;;;;;;;;40.00;34.75;;;;;;;;5002168;28;11620;-78
2022/01/12 13:03:23;;;;;;;;;33.75;31.25;;;;;;;;5005772;28;11640;-80
2022/01/12 13:05:52;;;;;;;;;27.25;23.75;;;;;;;;5006140;28;11664;-77
2022/01/12 13:08:19;;;;;;;;;36.00;30.50;;;;;;;;5004896;28;11123;-81
2022/01/12 13:10:47;;;;;;;;;46.50;42.00;;;;;;;;5005686;28;11698;-80
2022/01/12 13:13:14;;;;;;;;;31.75;30.50;;;;;;;;5004606;28;11634;-76
2022/01/12 13:15:43;;;;;;;;;37.25;34.50;;;;;;;;5005851;28;11626;-80
2022/01/12 13:18:15;;;;;;;;;38.25;37.25;;;;;;;;5004840;28;11627;-81
2022/01/12 13:23:39;;;;;;;;;32.00;30.50;;;;;;;;5006241;28;11601;-80
2022/01/12 13:26:08;;;;;;;;;35.25;32.25;;;;;;;;5004772;28;11646;-78
2022/01/12 13:28:36;;;;;;;;;33.50;31.75;;;;;;;;5005670;28;11620;-79
2022/01/12 13:31:06;;;;;;;;;42.75;34.00;;;;;;;;5004172;28;12494;-80
2022/01/12 13:33:35;;;;;;;;;31.00;30.25;;;;;;;;5005352;28;11661;-79
2022/01/12 13:36:13;;;;;;;;;32.00;29.75;;;;;;;;5001524;28;11642;-81
2022/01/12 13:38:43;;;;;;;;;40.50;33.00;;;;;;;;5008194;28;11620;-80
2022/01/12 13:41:12;;;;;;;;;40.25;30.50;;;;;;;;5007834;28;11797;-80
2022/01/12 13:43:42;;;;;;;;;40.50;33.25;;;;;;;;5015539;28;11630;-79
2022/01/12 13:46:14;;;;;;;;;46.50;41.00;;;;;;;;5006023;28;11637;-79
2022/01/12 13:49:05;;;;;;;;;42.00;40.75;;;;;;;;5004910;28;12503;-81
2022/01/12 13:51:37;;;;;;;;;35.75;30.75;;;;;;;;5004321;28;11661;-81
2022/01/12 13:54:07;;;;;;;;;35.00;35.00;;;;;;;;5002149;28;11612;-81
2022/01/12 13:56:35;;;;;;;;;34.25;33.00;;;;;;;;5002727;28;11640;-80
2022/01/12 13:59:03;;;;;;;;;36.75;35.50;;;;;;;;5005255;28;11649;-79
2022/01/12 14:01:32;;;;;;;;;28.25;25.75;;;;;;;;5003361;28;11559;-79
2022/01/12 14:04:09;;;;;;;;;41.50;37.50;;;;;;;;5004711;28;12437;-77
2022/01/12 14:06:39;;;;;;;;;35.00;32.25;;;;;;;;4999315;28;11633;-81
2022/01/12 14:09:22;;;;;;;;;39.00;37.00;;;;;;;;5004096;28;12410;-79
2022/01/12 14:11:50;;;;;;;;;35.00;28.75;;;;;;;;5004989;28;11616;-80
2022/01/12 14:14:20;;;;;;;;;38.50;37.00;;;;;;;;5004061;28;11691;-82
2022/01/12 14:16:48;;;;;;;;;36.25;31.75;;;;;;;;5004667;28;11751;-80
2022/01/12 14:19:17;;;;;;;;;46.50;39.75;;;;;;;;5002396;28;11627;-81
2022/01/12 14:21:55;;;;;;;;;36.75;33.25;;;;;;;;5003357;28;11605;-79
2022/01/12 14:24:24;;;;;;;;;42.50;40.25;;;;;;;;5004729;28;11625;-79
2022/01/12 14:26:51;;;;;;;;;37.75;34.75;;;;;;;;5002140;28;11643;-81
2022/01/12 14:29:18;;;;;;;;;45.00;40.50;;;;;;;;5003331;28;11610;-79
2022/01/12 14:31:45;;;;;;;;;42.25;37.75;;;;;;;;5003676;28;11662;-81
2022/01/12 14:34:13;;;;;;;;;45.25;35.25;;;;;;;;5004278;28;11628;-73
2022/01/12 14:36:40;;;;;;;;;49.75;39.75;;;;;;;;5004040;28;11648;-81
2022/01/12 14:39:08;;;;;;;;;42.75;38.25;;;;;;;;5004791;28;11624;-80
2022/01/12 14:41:37;;;;;;;;;45.75;38.50;;;;;;;;4996285;28;11613;-80
2022/01/12 14:44:05;;;;;;;;;49.75;43.00;;;;;;;;5009422;28;11653;-80
2022/01/12 14:46:33;;;;;;;;;53.00;42.00;;;;;;;;5004309;28;11643;-80
2022/01/12 14:49:00;;;;;;;;;42.25;38.00;;;;;;;;5001774;28;11633;-79
2022/01/12 14:51:27;;;;;;;;;36.50;34.75;;;;;;;;5003111;28;11623;-84
2022/01/12 14:53:54;;;;;;;;;45.50;41.50;;;;;;;;5004112;28;11718;-83
2022/01/12 14:56:22;;;;;;;;;36.50;34.00;;;;;;;;5005159;28;11789;-78
2022/01/12 14:58:51;;;;;;;;;52.00;43.50;;;;;;;;5003634;28;11649;-79
2022/01/12 15:01:18;;;;;;;;;42.25;39.25;;;;;;;;5000438;28;11603;-80
2022/01/12 15:03:46;;;;;;;;;43.00;40.00;;;;;;;;5003590;28;11613;-81
2022/01/12 15:06:13;;;;;;;;;47.00;40.75;;;;;;;;5001938;28;12445;-81
2022/01/12 15:08:40;;;;;;;;;42.75;34.75;;;;;;;;5003709;28;11763;-76
2022/01/12 15:11:09;;;;;;;;;36.50;34.00;;;;;;;;5000046;28;11638;-80
2022/01/12 15:13:52;;;;;;;;;42.50;38.75;;;;;;;;5001811;28;11658;-79
2022/01/12 15:16:21;;;;;;;;;42.50;36.00;;;;;;;;5001695;28;11634;-79
2022/01/12 15:18:48;;;;;;;;;54.75;43.50;;;;;;;;5002329;28;12423;-79
2022/01/12 15:21:16;;;;;;;;;38.50;37.75;;;;;;;;5002177;28;11790;-80
2022/01/12 15:23:44;;;;;;;;;39.00;36.50;;;;;;;;5001602;28;11625;-80
2022/01/12 15:26:11;;;;;;;;;38.25;36.25;;;;;;;;4998554;28;12338;-78
2022/01/12 15:28:39;;;;;;;;;40.00;36.25;;;;;;;;4995388;28;11642;-79
2022/01/12 15:31:08;;;;;;;;;44.25;37.50;;;;;;;;4991902;28;11715;-81
2022/01/12 15:33:38;;;;;;;;;51.75;41.50;;;;;;;;5003310;28;11614;-80
2022/01/12 15:36:07;;;;;;;;;39.75;32.25;;;;;;;;5003766;28;12370;-80